Página principal
METAR-TAF:

METAR-TAF

Aeroportos :

Palma de Maiorca, Espanha

Aeroporto de Palma de Maiorca-Son Sant Joan

latitude: 39-33N, longitude: 002-44E, altura: 4 m

Observação actual do tempo

O boletim foi feito há 23 minutos, às 23:00 UTC
Vento 3 kt de este
Temperatura 5°C
Humidade 93%
Pressão 1022 hPa
Visibilidade 10 km ou mais
Poucas nuvensa uma altura de 2300 ft

METAR: LEPA 122300Z 08003KT 9999 FEW023 05/04 Q1022 NOSIG

Hora: 00:23 (23:23 UTC)

Previsão

O boletim foi feito há 6 horas e 23 minutos, às 17:00 UTC
Previsão válida de 12 às 18 UTC a 13 às 18 UTC
Vento 4 kt com direcção variável
Visibilidade 10 km ou mais
Nuvens dispersasa uma altura de 3000 ft
Probabilidade 30% :
Temporariamente
de 12 às 18 UTC a 12 às 20 UTC
Vento 8 kt de noroeste
Temporariamente
de 13 às 10 UTC a 13 às 12 UTC
Vento 12 kt de oes-sudoeste

TAF: LEPA 121700Z 1218/1318 VRB04KT 9999 SCT030 TX15/1312Z TN03/1306Z PROB30 TEMPO 1218/1220 31008KT TEMPO 1310/1312 24012KT

Observações e previsões do tempo de mais de 4000 aeroportos (mensagens METAR e TAF).

As estações disponíveis são os pontos amarelos e vermelhos sobre o mapa.

Mova o rato sobre o mapa para ver o nome da estação.

Depois clique no ponto para visualizar as observações e previsões meteorológicas.

Para alterar o mapa : clique nos botões verdes com uma cruz preta para aumentar o zoom; no botão verde com uma pitada de zoom; ou nas setas verdes para mapas adjacentes.


METAR-TAF: